sensor_id;sensor_type;location;lat;lon;timestamp;pressure;altitude;pressure_sealevel;temperature;humidity
65276;BME280;51875;49.994;14.052;2023-12-29T00:00:52;98208.78;;;8.74;100.00
65276;BME280;51875;49.994;14.052;2023-12-29T00:02:11;98203.38;;;8.82;100.00
65276;BME280;51875;49.994;14.052;2023-12-29T00:03:27;98205.34;;;9.08;100.00
65276;BME280;51875;49.994;14.052;2023-12-29T00:04:43;98208.78;;;9.09;100.00
65276;BME280;51875;49.994;14.052;2023-12-29T00:06:02;98208.19;;;8.97;100.00
65276;BME280;51875;49.994;14.052;2023-12-29T00:07:18;98207.50;;;8.90;100.00
65276;BME280;51875;49.994;14.052;2023-12-29T00:08:36;98196.53;;;9.12;100.00
65276;BME280;51875;49.994;14.052;2023-12-29T00:09:52;98196.75;;;9.03;100.00
65276;BME280;51875;49.994;14.052;2023-12-29T00:11:16;98200.28;;;9.00;100.00
65276;BME280;51875;49.994;14.052;2023-12-29T00:12:32;98193.13;;;9.09;100.00
65276;BME280;51875;49.994;14.052;2023-12-29T00:13:48;98197.22;;;9.19;100.00
65276;BME280;51875;49.994;14.052;2023-12-29T00:15:05;98192.59;;;9.29;100.00
65276;BME280;51875;49.994;14.052;2023-12-29T00:16:21;98195.38;;;9.23;100.00
65276;BME280;51875;49.994;14.052;2023-12-29T00:17:37;98182.06;;;9.32;100.00
65276;BME280;51875;49.994;14.052;2023-12-29T00:18:55;98189.41;;;9.17;100.00
65276;BME280;51875;49.994;14.052;2023-12-29T00:20:11;98191.13;;;9.18;100.00
65276;BME280;51875;49.994;14.052;2023-12-29T00:21:27;98188.94;;;9.36;100.00
65276;BME280;51875;49.994;14.052;2023-12-29T00:22:43;98193.47;;;9.29;100.00
65276;BME280;51875;49.994;14.052;2023-12-29T00:23:59;98185.88;;;9.20;100.00
65276;BME280;51875;49.994;14.052;2023-12-29T00:25:15;98182.50;;;9.15;100.00
65276;BME280;51875;49.994;14.052;2023-12-29T00:26:31;98192.81;;;9.21;100.00
65276;BME280;51875;49.994;14.052;2023-12-29T00:27:47;98191.69;;;9.30;100.00
65276;BME280;51875;49.994;14.052;2023-12-29T00:29:03;98186.59;;;9.25;100.00
65276;BME280;51875;49.994;14.052;2023-12-29T00:30:21;98181.22;;;9.31;100.00
65276;BME280;51875;49.994;14.052;2023-12-29T00:31:37;98179.53;;;9.29;100.00
65276;BME280;51875;49.994;14.052;2023-12-29T00:32:53;98182.38;;;9.19;100.00
65276;BME280;51875;49.994;14.052;2023-12-29T00:34:09;98178.72;;;9.27;100.00
65276;BME280;51875;49.994;14.052;2023-12-29T00:35:27;98182.16;;;9.29;100.00
65276;BME280;51875;49.994;14.052;2023-12-29T00:36:43;98175.34;;;9.22;100.00
65276;BME280;51875;49.994;14.052;2023-12-29T00:37:59;98177.00;;;9.26;100.00
65276;BME280;51875;49.994;14.052;2023-12-29T00:39:15;98174.91;;;9.39;100.00
65276;BME280;51875;49.994;14.052;2023-12-29T00:40:34;98171.88;;;9.23;100.00
65276;BME280;51875;49.994;14.052;2023-12-29T00:41:50;98184.47;;;9.40;100.00
65276;BME280;51875;49.994;14.052;2023-12-29T00:43:06;98183.44;;;9.45;100.00
65276;BME280;51875;49.994;14.052;2023-12-29T00:44:23;98188.19;;;9.31;100.00
65276;BME280;51875;49.994;14.052;2023-12-29T00:45:39;98192.63;;;9.27;100.00
65276;BME280;51875;49.994;14.052;2023-12-29T00:46:55;98188.84;;;9.39;100.00
65276;BME280;51875;49.994;14.052;2023-12-29T00:48:11;98185.53;;;9.32;100.00
65276;BME280;51875;49.994;14.052;2023-12-29T00:49:27;98174.97;;;9.37;100.00
65276;BME280;51875;49.994;14.052;2023-12-29T00:50:43;98173.50;;;9.27;100.00
65276;BME280;51875;49.994;14.052;2023-12-29T00:51:59;98169.00;;;9.32;100.00
65276;BME280;51875;49.994;14.052;2023-12-29T00:53:16;98173.19;;;9.38;100.00
65276;BME280;51875;49.994;14.052;2023-12-29T00:54:31;98169.47;;;9.46;100.00
65276;BME280;51875;49.994;14.052;2023-12-29T00:55:47;98174.78;;;9.43;100.00
65276;BME280;51875;49.994;14.052;2023-12-29T00:57:04;98175.88;;;9.36;100.00
65276;BME280;51875;49.994;14.052;2023-12-29T00:58:20;98173.75;;;9.49;100.00
65276;BME280;51875;49.994;14.052;2023-12-29T00:59:38;98168.34;;;9.55;100.00
65276;BME280;51875;49.994;14.052;2023-12-29T01:00:55;98164.94;;;9.53;100.00
65276;BME280;51875;49.994;14.052;2023-12-29T01:02:11;98173.50;;;9.27;100.00
65276;BME280;51875;49.994;14.052;2023-12-29T01:03:27;98173.03;;;9.44;100.00
65276;BME280;51875;49.994;14.052;2023-12-29T01:04:43;98178.28;;;9.44;100.00
65276;BME280;51875;49.994;14.052;2023-12-29T01:05:59;98180.59;;;9.53;100.00
65276;BME280;51875;49.994;14.052;2023-12-29T01:07:15;98173.84;;;9.46;100.00
65276;BME280;51875;49.994;14.052;2023-12-29T01:08:31;98178.69;;;9.60;100.00
65276;BME280;51875;49.994;14.052;2023-12-29T01:09:49;98179.50;;;9.62;100.00
65276;BME280;51875;49.994;14.052;2023-12-29T01:11:05;98186.19;;;9.72;100.00
65276;BME280;51875;49.994;14.052;2023-12-29T01:12:21;98182.94;;;9.64;100.00
65276;BME280;51875;49.994;14.052;2023-12-29T01:13:37;98185.63;;;9.61;100.00
65276;BME280;51875;49.994;14.052;2023-12-29T01:14:53;98185.84;;;9.53;100.00
65276;BME280;51875;49.994;14.052;2023-12-29T01:16:09;98193.47;;;9.61;100.00
65276;BME280;51875;49.994;14.052;2023-12-29T01:17:24;98185.91;;;9.52;100.00
65276;BME280;51875;49.994;14.052;2023-12-29T01:18:43;98187.25;;;9.65;100.00
65276;BME280;51875;49.994;14.052;2023-12-29T01:19:59;98183.78;;;9.65;100.00
65276;BME280;51875;49.994;14.052;2023-12-29T01:21:15;98178.56;;;9.65;100.00
65276;BME280;51875;49.994;14.052;2023-12-29T01:22:31;98184.50;;;9.70;100.00
65276;BME280;51875;49.994;14.052;2023-12-29T01:23:47;98182.44;;;9.50;100.00
65276;BME280;51875;49.994;14.052;2023-12-29T01:25:03;98194.25;;;9.65;100.00
65276;BME280;51875;49.994;14.052;2023-12-29T01:26:19;98192.41;;;9.68;100.00
65276;BME280;51875;49.994;14.052;2023-12-29T01:27:35;98188.75;;;9.74;100.00
65276;BME280;51875;49.994;14.052;2023-12-29T01:28:51;98198.00;;;9.54;100.00
65276;BME280;51875;49.994;14.052;2023-12-29T01:30:07;98187.47;;;9.57;100.00
65276;BME280;51875;49.994;14.052;2023-12-29T01:31:24;98196.94;;;9.61;100.00
65276;BME280;51875;49.994;14.052;2023-12-29T01:32:44;98194.22;;;9.66;100.00
65276;BME280;51875;49.994;14.052;2023-12-29T01:34:00;98187.66;;;9.50;100.00
65276;BME280;51875;49.994;14.052;2023-12-29T01:35:16;98190.28;;;9.50;100.00
65276;BME280;51875;49.994;14.052;2023-12-29T01:36:33;98181.56;;;9.51;100.00
65276;BME280;51875;49.994;14.052;2023-12-29T01:37:49;98182.59;;;9.45;100.00
65276;BME280;51875;49.994;14.052;2023-12-29T01:39:05;98189.00;;;9.65;100.00
65276;BME280;51875;49.994;14.052;2023-12-29T01:40:21;98184.72;;;9.62;100.00
65276;BME280;51875;49.994;14.052;2023-12-29T01:41:37;98189.91;;;9.64;100.00
65276;BME280;51875;49.994;14.052;2023-12-29T01:42:54;98194.22;;;9.66;100.00
65276;BME280;51875;49.994;14.052;2023-12-29T01:44:21;98183.09;;;9.58;100.00
65276;BME280;51875;49.994;14.052;2023-12-29T01:45:37;98179.59;;;9.59;100.00
65276;BME280;51875;49.994;14.052;2023-12-29T01:46:55;98169.22;;;9.56;100.00
65276;BME280;51875;49.994;14.052;2023-12-29T01:48:14;98180.34;;;9.63;100.00
65276;BME280;51875;49.994;14.052;2023-12-29T01:49:31;98184.47;;;9.71;100.00
65276;BME280;51875;49.994;14.052;2023-12-29T01:50:50;98181.50;;;9.52;100.00
65276;BME280;51875;49.994;14.052;2023-12-29T01:52:07;98184.91;;;9.56;100.00
65276;BME280;51875;49.994;14.052;2023-12-29T01:53:24;98192.63;;;9.60;100.00
65276;BME280;51875;49.994;14.052;2023-12-29T01:54:40;98185.56;;;9.64;100.00
65276;BME280;51875;49.994;14.052;2023-12-29T01:55:58;98175.13;;;9.63;100.00
65276;BME280;51875;49.994;14.052;2023-12-29T01:57:14;98178.31;;;9.74;100.00
65276;BME280;51875;49.994;14.052;2023-12-29T01:58:30;98180.66;;;9.52;100.00
65276;BME280;51875;49.994;14.052;2023-12-29T01:59:46;98171.94;;;9.53;100.00
65276;BME280;51875;49.994;14.052;2023-12-29T02:01:04;98174.25;;;9.62;100.00
65276;BME280;51875;49.994;14.052;2023-12-29T02:02:22;98172.94;;;9.79;100.00
65276;BME280;51875;49.994;14.052;2023-12-29T02:03:38;98175.28;;;9.56;100.00
65276;BME280;51875;49.994;14.052;2023-12-29T02:04:54;98182.38;;;9.53;100.00
65276;BME280;51875;49.994;14.052;2023-12-29T02:06:12;98170.94;;;9.57;100.00
65276;BME280;51875;49.994;14.052;2023-12-29T02:07:29;98172.41;;;9.67;100.00
65276;BME280;51875;49.994;14.052;2023-12-29T02:08:47;98166.97;;;9.73;100.00
65276;BME280;51875;49.994;14.052;2023-12-29T02:10:04;98161.16;;;9.64;100.00
65276;BME280;51875;49.994;14.052;2023-12-29T02:11:20;98162.09;;;9.61;100.00
65276;BME280;51875;49.994;14.052;2023-12-29T02:12:36;98164.66;;;9.64;100.00
65276;BME280;51875;49.994;14.052;2023-12-29T02:13:55;98171.53;;;9.67;100.00
65276;BME280;51875;49.994;14.052;2023-12-29T02:15:11;98164.91;;;9.55;100.00
65276;BME280;51875;49.994;14.052;2023-12-29T02:18:12;98155.97;;;9.62;100.00
65276;BME280;51875;49.994;14.052;2023-12-29T02:19:41;98167.84;;;9.74;100.00
65276;BME280;51875;49.994;14.052;2023-12-29T02:20:59;98164.78;;;9.59;100.00
65276;BME280;51875;49.994;14.052;2023-12-29T02:22:15;98144.59;;;9.63;100.00
65276;BME280;51875;49.994;14.052;2023-12-29T02:23:31;98139.69;;;9.82;100.00
65276;BME280;51875;49.994;14.052;2023-12-29T02:24:48;98139.91;;;9.76;100.00
65276;BME280;51875;49.994;14.052;2023-12-29T02:26:10;98140.84;;;9.73;100.00
65276;BME280;51875;49.994;14.052;2023-12-29T02:28:54;98130.81;;;9.58;100.00
65276;BME280;51875;49.994;14.052;2023-12-29T02:31:52;98126.50;;;9.87;100.00
65276;BME280;51875;49.994;14.052;2023-12-29T02:33:21;98130.47;;;9.70;100.00
65276;BME280;51875;49.994;14.052;2023-12-29T02:34:40;98129.03;;;9.60;100.00
65276;BME280;51875;49.994;14.052;2023-12-29T02:35:59;98123.53;;;9.69;100.00
65276;BME280;51875;49.994;14.052;2023-12-29T02:37:16;98128.19;;;9.59;100.00
65276;BME280;51875;49.994;14.052;2023-12-29T02:38:33;98131.97;;;9.47;100.00
65276;BME280;51875;49.994;14.052;2023-12-29T02:39:49;98127.63;;;9.48;100.00
65276;BME280;51875;49.994;14.052;2023-12-29T02:41:05;98119.72;;;9.50;100.00
65276;BME280;51875;49.994;14.052;2023-12-29T02:42:22;98115.78;;;9.66;100.00
65276;BME280;51875;49.994;14.052;2023-12-29T02:43:38;98118.09;;;9.45;100.00
65276;BME280;51875;49.994;14.052;2023-12-29T02:44:54;98119.00;;;9.44;100.00
65276;BME280;51875;49.994;14.052;2023-12-29T02:46:09;98122.34;;;9.50;100.00
65276;BME280;51875;49.994;14.052;2023-12-29T02:47:26;98125.25;;;9.39;100.00
65276;BME280;51875;49.994;14.052;2023-12-29T02:48:42;98131.53;;;9.33;100.00
65276;BME280;51875;49.994;14.052;2023-12-29T02:49:58;98126.91;;;9.43;100.00
65276;BME280;51875;49.994;14.052;2023-12-29T02:51:14;98121.25;;;9.27;100.00
65276;BME280;51875;49.994;14.052;2023-12-29T02:52:30;98118.34;;;9.38;100.00
65276;BME280;51875;49.994;14.052;2023-12-29T02:53:46;98119.56;;;9.24;100.00
65276;BME280;51875;49.994;14.052;2023-12-29T02:55:03;98123.47;;;9.41;100.00
65276;BME280;51875;49.994;14.052;2023-12-29T02:56:19;98125.00;;;9.48;100.00
65276;BME280;51875;49.994;14.052;2023-12-29T02:57:35;98126.38;;;9.30;100.00
65276;BME280;51875;49.994;14.052;2023-12-29T02:58:51;98122.88;;;9.31;100.00
65276;BME280;51875;49.994;14.052;2023-12-29T03:00:08;98132.38;;;9.33;100.00
65276;BME280;51875;49.994;14.052;2023-12-29T03:01:24;98130.38;;;9.43;100.00
65276;BME280;51875;49.994;14.052;2023-12-29T03:02:40;98127.94;;;9.37;100.00
65276;BME280;51875;49.994;14.052;2023-12-29T03:03:56;98126.16;;;9.38;100.00
65276;BME280;51875;49.994;14.052;2023-12-29T03:05:12;98121.84;;;9.37;100.00
65276;BME280;51875;49.994;14.052;2023-12-29T03:06:28;98126.34;;;9.31;100.00
65276;BME280;51875;49.994;14.052;2023-12-29T03:07:44;98117.88;;;9.22;100.00
65276;BME280;51875;49.994;14.052;2023-12-29T03:09:00;98117.72;;;9.29;100.00
65276;BME280;51875;49.994;14.052;2023-12-29T03:10:16;98113.00;;;9.41;100.00
65276;BME280;51875;49.994;14.052;2023-12-29T03:11:32;98113.97;;;9.38;100.00
65276;BME280;51875;49.994;14.052;2023-12-29T03:12:48;98101.88;;;9.34;100.00
65276;BME280;51875;49.994;14.052;2023-12-29T03:14:04;98111.63;;;9.27;100.00
65276;BME280;51875;49.994;14.052;2023-12-29T03:15:20;98097.09;;;9.18;100.00
65276;BME280;51875;49.994;14.052;2023-12-29T03:16:36;98105.66;;;9.24;100.00
65276;BME280;51875;49.994;14.052;2023-12-29T03:17:52;98099.56;;;9.23;100.00
65276;BME280;51875;49.994;14.052;2023-12-29T03:19:07;98096.66;;;9.34;100.00
65276;BME280;51875;49.994;14.052;2023-12-29T03:20:23;98091.44;;;9.34;100.00
65276;BME280;51875;49.994;14.052;2023-12-29T03:21:40;98083.75;;;9.29;100.00
65276;BME280;51875;49.994;14.052;2023-12-29T03:22:55;98082.22;;;9.21;100.00
65276;BME280;51875;49.994;14.052;2023-12-29T03:24:11;98076.53;;;9.06;100.00
65276;BME280;51875;49.994;14.052;2023-12-29T03:25:28;98073.88;;;9.08;100.00
65276;BME280;51875;49.994;14.052;2023-12-29T03:26:43;98082.84;;;8.99;100.00
65276;BME280;51875;49.994;14.052;2023-12-29T03:27:59;98077.63;;;8.99;100.00
65276;BME280;51875;49.994;14.052;2023-12-29T03:29:16;98079.34;;;8.98;100.00
65276;BME280;51875;49.994;14.052;2023-12-29T03:30:32;98080.22;;;8.99;100.00
65276;BME280;51875;49.994;14.052;2023-12-29T03:31:48;98080.25;;;8.97;100.00
65276;BME280;51875;49.994;14.052;2023-12-29T03:33:04;98094.28;;;8.95;100.00
65276;BME280;51875;49.994;14.052;2023-12-29T03:34:20;98091.78;;;8.90;100.00
65276;BME280;51875;49.994;14.052;2023-12-29T03:35:36;98087.00;;;8.73;100.00
65276;BME280;51875;49.994;14.052;2023-12-29T03:36:52;98085.81;;;8.85;100.00
65276;BME280;51875;49.994;14.052;2023-12-29T03:38:08;98091.56;;;8.98;100.00
65276;BME280;51875;49.994;14.052;2023-12-29T03:39:24;98092.78;;;8.84;100.00
65276;BME280;51875;49.994;14.052;2023-12-29T03:40:40;98089.97;;;8.92;100.00
65276;BME280;51875;49.994;14.052;2023-12-29T03:41:56;98086.28;;;8.99;100.00
65276;BME280;51875;49.994;14.052;2023-12-29T03:43:12;98087.84;;;9.07;100.00
65276;BME280;51875;49.994;14.052;2023-12-29T03:44:28;98093.03;;;9.08;100.00
65276;BME280;51875;49.994;14.052;2023-12-29T03:45:44;98084.66;;;8.95;100.00
65276;BME280;51875;49.994;14.052;2023-12-29T03:47:00;98083.69;;;8.99;100.00
65276;BME280;51875;49.994;14.052;2023-12-29T03:48:16;98086.16;;;9.04;100.00
65276;BME280;51875;49.994;14.052;2023-12-29T03:49:32;98085.75;;;9.19;100.00
65276;BME280;51875;49.994;14.052;2023-12-29T03:50:49;98083.94;;;9.22;100.00
65276;BME280;51875;49.994;14.052;2023-12-29T03:52:05;98077.91;;;9.19;100.00
65276;BME280;51875;49.994;14.052;2023-12-29T03:53:21;98078.91;;;9.15;100.00
65276;BME280;51875;49.994;14.052;2023-12-29T03:54:38;98070.81;;;9.25;100.00
65276;BME280;51875;49.994;14.052;2023-12-29T03:55:54;98078.47;;;9.31;100.00
65276;BME280;51875;49.994;14.052;2023-12-29T03:57:10;98073.00;;;9.09;100.00
65276;BME280;51875;49.994;14.052;2023-12-29T03:58:26;98076.84;;;9.27;100.00
65276;BME280;51875;49.994;14.052;2023-12-29T03:59:42;98066.44;;;9.25;100.00
65276;BME280;51875;49.994;14.052;2023-12-29T04:00:58;98069.72;;;9.32;100.00
65276;BME280;51875;49.994;14.052;2023-12-29T04:02:13;98066.03;;;9.39;100.00
65276;BME280;51875;49.994;14.052;2023-12-29T04:03:29;98061.72;;;9.38;100.00
65276;BME280;51875;49.994;14.052;2023-12-29T04:04:45;98062.41;;;9.45;100.00
65276;BME280;51875;49.994;14.052;2023-12-29T04:06:01;98053.81;;;9.40;100.00
65276;BME280;51875;49.994;14.052;2023-12-29T04:07:17;98057.22;;;9.42;100.00
65276;BME280;51875;49.994;14.052;2023-12-29T04:08:37;98054.50;;;9.16;100.00
65276;BME280;51875;49.994;14.052;2023-12-29T04:09:53;98052.91;;;9.41;100.00
65276;BME280;51875;49.994;14.052;2023-12-29T04:11:09;98061.25;;;9.24;100.00
65276;BME280;51875;49.994;14.052;2023-12-29T04:12:26;98051.44;;;9.32;100.00
65276;BME280;51875;49.994;14.052;2023-12-29T04:13:42;98056.81;;;9.57;100.00
65276;BME280;51875;49.994;14.052;2023-12-29T04:14:58;98052.56;;;9.53;100.00
65276;BME280;51875;49.994;14.052;2023-12-29T04:16:14;98049.91;;;9.25;100.00
65276;BME280;51875;49.994;14.052;2023-12-29T04:17:31;98042.75;;;9.31;100.00
65276;BME280;51875;49.994;14.052;2023-12-29T04:18:47;98046.03;;;9.38;100.00
65276;BME280;51875;49.994;14.052;2023-12-29T04:20:03;98042.56;;;9.38;100.00
65276;BME280;51875;49.994;14.052;2023-12-29T04:21:19;98033.94;;;9.34;100.00
65276;BME280;51875;49.994;14.052;2023-12-29T04:22:35;98032.44;;;9.27;100.00
65276;BME280;51875;49.994;14.052;2023-12-29T04:23:51;98033.69;;;9.13;100.00
65276;BME280;51875;49.994;14.052;2023-12-29T04:25:07;98029.19;;;9.18;100.00
65276;BME280;51875;49.994;14.052;2023-12-29T04:26:24;98029.75;;;9.28;100.00
65276;BME280;51875;49.994;14.052;2023-12-29T04:27:40;98031.63;;;9.25;100.00
65276;BME280;51875;49.994;14.052;2023-12-29T04:28:56;98030.09;;;9.17;100.00
65276;BME280;51875;49.994;14.052;2023-12-29T04:30:13;98024.84;;;9.17;100.00
65276;BME280;51875;49.994;14.052;2023-12-29T04:31:29;98026.09;;;9.04;100.00
65276;BME280;51875;49.994;14.052;2023-12-29T04:32:45;98030.63;;;9.29;100.00
65276;BME280;51875;49.994;14.052;2023-12-29T04:34:01;98028.13;;;9.26;100.00
65276;BME280;51875;49.994;14.052;2023-12-29T04:35:17;98031.66;;;9.23;100.00
65276;BME280;51875;49.994;14.052;2023-12-29T04:36:33;98039.25;;;9.32;100.00
65276;BME280;51875;49.994;14.052;2023-12-29T04:37:49;98034.59;;;9.12;100.00
65276;BME280;51875;49.994;14.052;2023-12-29T04:39:05;98023.63;;;8.99;100.00
65276;BME280;51875;49.994;14.052;2023-12-29T04:40:21;98027.06;;;9.01;100.00
65276;BME280;51875;49.994;14.052;2023-12-29T04:41:37;98026.28;;;8.98;100.00
65276;BME280;51875;49.994;14.052;2023-12-29T04:42:54;98020.53;;;9.16;100.00
65276;BME280;51875;49.994;14.052;2023-12-29T04:44:10;98027.31;;;9.24;100.00
65276;BME280;51875;49.994;14.052;2023-12-29T04:45:26;98022.13;;;9.22;100.00
65276;BME280;51875;49.994;14.052;2023-12-29T04:46:42;98019.75;;;9.13;100.00
65276;BME280;51875;49.994;14.052;2023-12-29T04:47:58;98020.53;;;9.16;100.00
65276;BME280;51875;49.994;14.052;2023-12-29T04:49:14;98017.13;;;9.14;100.00
65276;BME280;51875;49.994;14.052;2023-12-29T04:50:30;98020.22;;;8.97;100.00
65276;BME280;51875;49.994;14.052;2023-12-29T04:51:46;98024.75;;;9.21;100.00
65276;BME280;51875;49.994;14.052;2023-12-29T04:53:04;98023.56;;;9.32;100.00
65276;BME280;51875;49.994;14.052;2023-12-29T04:54:20;98016.56;;;9.33;100.00
65276;BME280;51875;49.994;14.052;2023-12-29T04:55:36;98014.69;;;9.38;100.00
65276;BME280;51875;49.994;14.052;2023-12-29T04:56:52;98022.38;;;9.13;100.00
65276;BME280;51875;49.994;14.052;2023-12-29T04:58:08;98025.94;;;9.10;100.00
65276;BME280;51875;49.994;14.052;2023-12-29T04:59:24;98030.72;;;9.26;100.00
65276;BME280;51875;49.994;14.052;2023-12-29T05:00:40;98025.28;;;9.03;100.00
65276;BME280;51875;49.994;14.052;2023-12-29T05:01:56;98027.44;;;9.19;100.00
65276;BME280;51875;49.994;14.052;2023-12-29T05:03:12;98024.53;;;8.98;100.00
65276;BME280;51875;49.994;14.052;2023-12-29T05:04:28;98027.91;;;9.02;100.00
65276;BME280;51875;49.994;14.052;2023-12-29T05:05:44;98025.94;;;9.10;100.00
65276;BME280;51875;49.994;14.052;2023-12-29T05:07:00;98029.53;;;9.06;100.00
65276;BME280;51875;49.994;14.052;2023-12-29T05:08:16;98034.00;;;9.02;100.00
65276;BME280;51875;49.994;14.052;2023-12-29T05:09:32;98033.69;;;9.13;100.00
65276;BME280;51875;49.994;14.052;2023-12-29T05:10:48;98038.00;;;9.14;100.00
65276;BME280;51875;49.994;14.052;2023-12-29T05:12:04;98032.13;;;9.06;100.00
65276;BME280;51875;49.994;14.052;2023-12-29T05:13:20;98033.00;;;9.07;100.00
65276;BME280;51875;49.994;14.052;2023-12-29T05:14:36;98032.28;;;9.01;100.00
65276;BME280;51875;49.994;14.052;2023-12-29T05:15:52;98033.22;;;8.99;100.00
65276;BME280;51875;49.994;14.052;2023-12-29T05:17:08;98022.34;;;9.14;100.00
65276;BME280;51875;49.994;14.052;2023-12-29T05:18:24;98028.91;;;8.98;100.00
65276;BME280;51875;49.994;14.052;2023-12-29T05:19:42;98020.34;;;8.93;100.00
65276;BME280;51875;49.994;14.052;2023-12-29T05:21:00;98026.31;;;8.96;100.00
65276;BME280;51875;49.994;14.052;2023-12-29T05:22:16;98023.41;;;9.07;100.00
65276;BME280;51875;49.994;14.052;2023-12-29T05:23:33;98027.91;;;9.02;100.00
65276;BME280;51875;49.994;14.052;2023-12-29T05:24:49;98020.09;;;9.00;100.00
65276;BME280;51875;49.994;14.052;2023-12-29T05:26:05;98024.84;;;9.17;100.00
65276;BME280;51875;49.994;14.052;2023-12-29T05:27:22;98022.66;;;9.03;100.00
65276;BME280;51875;49.994;14.052;2023-12-29T05:28:38;98028.69;;;9.06;100.00
65276;BME280;51875;49.994;14.052;2023-12-29T05:29:54;98034.84;;;9.03;100.00
65276;BME280;51875;49.994;14.052;2023-12-29T05:31:10;98033.16;;;9.00;100.00
65276;BME280;51875;49.994;14.052;2023-12-29T05:32:26;98036.47;;;9.07;100.00
65276;BME280;51875;49.994;14.052;2023-12-29T05:33:43;98037.22;;;9.11;100.00
65276;BME280;51875;49.994;14.052;2023-12-29T05:34:59;98043.50;;;9.05;100.00
65276;BME280;51875;49.994;14.052;2023-12-29T05:36:15;98047.91;;;9.03;100.00
65276;BME280;51875;49.994;14.052;2023-12-29T05:37:31;98041.56;;;9.12;100.00
65276;BME280;51875;49.994;14.052;2023-12-29T05:38:47;98038.25;;;9.05;100.00
65276;BME280;51875;49.994;14.052;2023-12-29T05:40:03;98042.13;;;8.92;100.00
65276;BME280;51875;49.994;14.052;2023-12-29T05:41:19;98041.09;;;8.97;100.00
65276;BME280;51875;49.994;14.052;2023-12-29T05:42:35;98048.16;;;8.94;100.00
65276;BME280;51875;49.994;14.052;2023-12-29T05:43:51;98043.53;;;9.03;100.00
65276;BME280;51875;49.994;14.052;2023-12-29T05:45:08;98041.53;;;9.13;100.00
65276;BME280;51875;49.994;14.052;2023-12-29T05:46:24;98039.53;;;9.22;100.00
65276;BME280;51875;49.994;14.052;2023-12-29T05:47:40;98042.44;;;9.12;100.00
65276;BME280;51875;49.994;14.052;2023-12-29T05:48:56;98033.16;;;9.00;100.00
65276;BME280;51875;49.994;14.052;2023-12-29T05:50:12;98028.41;;;9.15;100.00
65276;BME280;51875;49.994;14.052;2023-12-29T05:51:28;98044.28;;;9.07;100.00
65276;BME280;51875;49.994;14.052;2023-12-29T05:52:44;98048.31;;;8.89;100.00
65276;BME280;51875;49.994;14.052;2023-12-29T05:54:00;98038.59;;;8.93;100.00
65276;BME280;51875;49.994;14.052;2023-12-29T05:55:16;98051.53;;;8.97;100.00
65276;BME280;51875;49.994;14.052;2023-12-29T05:56:32;98041.09;;;8.97;100.00
65276;BME280;51875;49.994;14.052;2023-12-29T05:57:48;98054.16;;;8.97;100.00
65276;BME280;51875;49.994;14.052;2023-12-29T05:59:04;98049.38;;;9.13;100.00
65276;BME280;51875;49.994;14.052;2023-12-29T06:00:20;98045.16;;;9.08;100.00
65276;BME280;51875;49.994;14.052;2023-12-29T06:01:36;98045.13;;;9.09;100.00
65276;BME280;51875;49.994;14.052;2023-12-29T06:02:52;98037.75;;;9.24;100.00
65276;BME280;51875;49.994;14.052;2023-12-29T06:04:08;98043.59;;;9.32;100.00
65276;BME280;51875;49.994;14.052;2023-12-29T06:05:24;98050.63;;;9.30;100.00
65276;BME280;51875;49.994;14.052;2023-12-29T06:06:42;98033.94;;;9.34;100.00
65276;BME280;51875;49.994;14.052;2023-12-29T06:07:58;98038.66;;;9.23;100.00
65276;BME280;51875;49.994;14.052;2023-12-29T06:09:14;98050.72;;;9.27;100.00
65276;BME280;51875;49.994;14.052;2023-12-29T06:10:30;98048.81;;;9.32;100.00
65276;BME280;51875;49.994;14.052;2023-12-29T06:11:46;98050.75;;;9.25;100.00
65276;BME280;51875;49.994;14.052;2023-12-29T06:13:03;98059.47;;;9.26;100.00
65276;BME280;51875;49.994;14.052;2023-12-29T06:14:19;98059.38;;;9.29;100.00
65276;BME280;51875;49.994;14.052;2023-12-29T06:15:35;98061.88;;;9.32;100.00
65276;BME280;51875;49.994;14.052;2023-12-29T06:16:52;98046.06;;;9.37;100.00
65276;BME280;51875;49.994;14.052;2023-12-29T06:18:08;98043.66;;;9.30;100.00
65276;BME280;51875;49.994;14.052;2023-12-29T06:19:24;98039.09;;;9.37;100.00
65276;BME280;51875;49.994;14.052;2023-12-29T06:20:40;98041.22;;;9.24;100.00
65276;BME280;51875;49.994;14.052;2023-12-29T06:21:56;98039.28;;;9.31;100.00
65276;BME280;51875;49.994;14.052;2023-12-29T06:23:12;98030.72;;;9.26;100.00
65276;BME280;51875;49.994;14.052;2023-12-29T06:24:28;98037.97;;;9.46;100.00
65276;BME280;51875;49.994;14.052;2023-12-29T06:25:44;98040.00;;;9.36;100.00
65276;BME280;51875;49.994;14.052;2023-12-29T06:27:00;98045.13;;;9.39;100.00
65276;BME280;51875;49.994;14.052;2023-12-29T06:28:16;98050.13;;;9.47;100.00
65276;BME280;51875;49.994;14.052;2023-12-29T06:29:32;98051.31;;;9.37;100.00
65276;BME280;51875;49.994;14.052;2023-12-29T06:30:49;98040.50;;;9.19;100.00
65276;BME280;51875;49.994;14.052;2023-12-29T06:32:05;98046.88;;;9.39;100.00
65276;BME280;51875;49.994;14.052;2023-12-29T06:33:22;98044.38;;;9.36;100.00
65276;BME280;51875;49.994;14.052;2023-12-29T06:34:38;98045.06;;;9.41;100.00
65276;BME280;51875;49.994;14.052;2023-12-29T06:35:54;98046.31;;;9.29;100.00
65276;BME280;51875;49.994;14.052;2023-12-29T06:37:14;98048.09;;;9.27;100.00
65276;BME280;51875;49.994;14.052;2023-12-29T06:38:31;98052.97;;;9.39;100.00
65276;BME280;51875;49.994;14.052;2023-12-29T06:39:49;98048.94;;;9.27;100.00
65276;BME280;51875;49.994;14.052;2023-12-29T06:41:05;98048.19;;;9.24;100.00
65276;BME280;51875;49.994;14.052;2023-12-29T06:42:21;98044.50;;;9.31;100.00
65276;BME280;51875;49.994;14.052;2023-12-29T06:43:38;98047.19;;;9.28;100.00
65276;BME280;51875;49.994;14.052;2023-12-29T06:44:54;98050.75;;;9.25;100.00